createdAt,value
2023-02-08T00:01:35.771Z,17.17
2023-02-08T00:04:04.775Z,13.73
2023-02-08T00:06:33.633Z,10.05
2023-02-08T00:09:04.181Z,19.98
2023-02-08T00:11:33.151Z,26.55
2023-02-08T00:14:02.026Z,16.02
2023-02-08T00:16:31.405Z,11.50
2023-02-08T00:19:00.316Z,17.10
2023-02-08T00:21:29.644Z,10.88
2023-02-08T00:23:58.556Z,12.73
2023-02-08T00:26:29.038Z,15.18
2023-02-08T00:28:57.897Z,13.75
2023-02-08T00:31:26.819Z,10.40
2023-02-08T00:33:55.795Z,11.18
2023-02-08T00:36:24.609Z,13.20
2023-02-08T00:38:53.513Z,8.27
2023-02-08T00:41:23.388Z,21.05
2023-02-08T00:43:53.661Z,4.68
2023-02-08T00:46:22.565Z,12.60
2023-02-08T00:48:51.739Z,15.02
2023-02-08T00:51:20.526Z,7.07
2023-02-08T00:53:51.713Z,18.63
2023-02-08T00:56:20.661Z,19.83
2023-02-08T00:58:49.551Z,6.70
2023-02-08T01:01:20.753Z,16.58
2023-02-08T01:03:49.779Z,7.03
2023-02-08T01:06:19.655Z,11.13
2023-02-08T01:08:48.518Z,12.05
2023-02-08T01:11:21.782Z,14.00
2023-02-08T01:13:51.004Z,14.70
2023-02-08T01:16:23.147Z,6.65
2023-02-08T01:18:54.864Z,14.75
2023-02-08T01:21:26.208Z,12.95
2023-02-08T01:23:55.712Z,6.72
2023-02-08T01:26:25.921Z,5.57
2023-02-08T01:28:56.060Z,9.48
2023-02-08T01:31:28.072Z,7.30
2023-02-08T01:33:57.366Z,13.68
2023-02-08T01:36:27.352Z,9.07
2023-02-08T01:38:56.586Z,16.45
2023-02-08T01:41:28.710Z,7.75
2023-02-08T01:44:07.394Z,9.43
2023-02-08T01:46:39.186Z,11.38
2023-02-08T01:49:12.947Z,11.73
2023-02-08T01:51:48.480Z,5.70
2023-02-08T01:54:19.765Z,6.25
2023-02-08T01:56:49.771Z,6.18
2023-02-08T01:59:24.233Z,16.92
2023-02-08T02:01:57.464Z,15.27
2023-02-08T02:04:28.021Z,14.57
2023-02-08T02:07:00.612Z,19.08
2023-02-08T02:09:35.354Z,10.95
2023-02-08T02:12:04.322Z,8.55
2023-02-08T02:14:33.318Z,10.27
2023-02-08T02:17:03.495Z,11.88
2023-02-08T02:19:41.990Z,6.85
2023-02-08T02:22:34.247Z,11.15
2023-02-08T02:25:24.149Z,7.00
2023-02-08T02:28:21.786Z,3.28
2023-02-08T02:31:41.387Z,6.90
2023-02-08T02:34:20.761Z,8.55
2023-02-08T02:36:55.117Z,9.43
2023-02-08T02:39:31.234Z,31.13
2023-02-08T02:42:27.664Z,12.13
2023-02-08T02:45:07.450Z,8.07
2023-02-08T02:47:42.860Z,6.05
2023-02-08T02:50:20.399Z,11.73
2023-02-08T02:52:56.832Z,7.15
2023-02-08T02:55:27.668Z,15.82
2023-02-08T02:57:59.674Z,19.75
2023-02-08T03:00:31.096Z,12.90
2023-02-08T03:02:59.999Z,13.88
2023-02-08T03:05:31.787Z,11.38
2023-02-08T03:08:19.514Z,10.73
2023-02-08T03:11:19.993Z,6.22
2023-02-08T03:14:18.911Z,10.05
2023-02-08T03:17:04.227Z,12.05
2023-02-08T03:19:37.854Z,21.67
2023-02-08T03:22:14.579Z,10.30
2023-02-08T03:24:53.276Z,10.02
2023-02-08T03:27:29.000Z,22.15
2023-02-08T03:30:03.977Z,16.92
2023-02-08T03:32:41.015Z,13.60
2023-02-08T03:35:16.475Z,10.75
2023-02-08T03:37:51.451Z,9.23
2023-02-08T03:40:25.893Z,10.07
2023-02-08T03:42:57.044Z,9.13
2023-02-08T03:45:31.220Z,9.48
2023-02-08T03:48:04.991Z,12.82
2023-02-08T03:50:37.313Z,20.63
2023-02-08T03:53:10.080Z,9.90
2023-02-08T03:55:40.065Z,25.02
2023-02-08T03:58:16.574Z,11.15
2023-02-08T04:00:52.316Z,11.13
2023-02-08T04:03:25.460Z,11.43
2023-02-08T04:05:54.397Z,12.95
2023-02-08T04:08:24.637Z,12.27
2023-02-08T04:10:53.725Z,17.85
2023-02-08T04:13:22.601Z,14.27
2023-02-08T04:15:51.557Z,18.98
2023-02-08T04:18:20.487Z,14.80
2023-02-08T04:20:49.395Z,17.10
2023-02-08T04:23:18.257Z,13.98
2023-02-08T04:25:48.434Z,12.23
2023-02-08T04:28:17.416Z,9.00
2023-02-08T04:30:46.445Z,10.13
2023-02-08T04:33:15.392Z,7.05
2023-02-08T04:35:44.517Z,6.85
2023-02-08T04:38:13.502Z,8.85
2023-02-08T04:40:42.559Z,10.25
2023-02-08T04:43:12.934Z,6.18
2023-02-08T04:45:41.797Z,10.60
2023-02-08T04:48:11.988Z,5.82
2023-02-08T04:50:41.159Z,7.13
2023-02-08T04:53:10.272Z,3.83
2023-02-08T04:55:39.187Z,9.82
2023-02-08T04:58:08.048Z,5.80
2023-02-08T05:00:38.494Z,22.60
2023-02-08T05:03:07.622Z,15.60
2023-02-08T05:05:36.431Z,17.83
2023-02-08T05:08:05.853Z,19.23
2023-02-08T05:10:34.779Z,20.38
2023-02-08T05:13:03.901Z,16.55
2023-02-08T05:15:32.727Z,12.15
2023-02-08T05:18:03.702Z,4.93
2023-02-08T05:20:33.863Z,10.15
2023-02-08T05:23:03.264Z,17.70
2023-02-08T05:25:32.159Z,19.25
2023-02-08T05:28:02.124Z,13.32
2023-02-08T05:30:31.625Z,20.08
2023-02-08T05:33:00.419Z,7.30
2023-02-08T05:35:31.164Z,17.38
2023-02-08T05:37:59.924Z,27.02
2023-02-08T05:40:29.643Z,36.60
2023-02-08T05:42:58.527Z,19.98
2023-02-08T05:45:27.347Z,15.73
2023-02-08T05:47:56.185Z,22.17
2023-02-08T05:50:24.970Z,44.33
2023-02-08T05:52:55.139Z,57.28
2023-02-08T05:55:23.940Z,187.45
2023-02-08T05:57:53.252Z,75.00
2023-02-08T06:00:22.264Z,72.80
2023-02-08T06:02:51.198Z,17.00
2023-02-08T06:05:20.151Z,15.45
2023-02-08T06:07:48.964Z,17.55
2023-02-08T06:10:19.334Z,3.85
2023-02-08T06:12:48.151Z,19.73
2023-02-08T06:15:17.173Z,24.40
2023-02-08T06:17:45.991Z,20.55
2023-02-08T06:20:14.901Z,15.00
2023-02-08T06:22:43.747Z,7.13
2023-02-08T06:25:12.745Z,7.82
2023-02-08T06:27:42.933Z,12.07
2023-02-08T06:30:14.288Z,20.08
2023-02-08T06:32:45.523Z,41.63
2023-02-08T06:35:14.674Z,10.48
2023-02-08T06:37:43.638Z,6.38
2023-02-08T06:40:12.618Z,10.32
2023-02-08T06:42:43.172Z,13.30
2023-02-08T06:45:13.660Z,10.40
2023-02-08T06:47:42.934Z,11.43
2023-02-08T06:50:12.443Z,8.60
2023-02-08T06:52:41.311Z,7.38
2023-02-08T06:55:10.291Z,15.00
2023-02-08T06:57:39.186Z,7.93
2023-02-08T07:00:10.982Z,10.25
2023-02-08T07:02:39.852Z,14.43
2023-02-08T07:05:09.142Z,8.48
2023-02-08T07:07:38.035Z,8.82
2023-02-08T07:10:07.792Z,13.93
2023-02-08T07:12:36.749Z,15.02
2023-02-08T07:15:05.867Z,12.60
2023-02-08T07:17:39.039Z,12.40
2023-02-08T07:20:15.498Z,15.98
2023-02-08T07:22:44.562Z,10.05
2023-02-08T07:25:13.433Z,17.85
2023-02-08T07:27:42.240Z,15.55
2023-02-08T07:30:12.725Z,6.75
2023-02-08T07:32:42.977Z,8.70
2023-02-08T07:35:11.848Z,7.88
2023-02-08T07:37:40.732Z,12.68
2023-02-08T07:40:10.547Z,14.35
2023-02-08T07:42:39.355Z,10.73
2023-02-08T07:45:22.178Z,8.27
2023-02-08T07:47:52.646Z,10.10
2023-02-08T07:50:21.455Z,4.25
2023-02-08T07:52:50.301Z,5.50
2023-02-08T07:55:20.574Z,4.93
2023-02-08T07:57:50.661Z,1.90
2023-02-08T08:00:20.530Z,11.73
2023-02-08T08:02:50.587Z,7.70
2023-02-08T08:05:21.691Z,4.82
2023-02-08T08:07:50.579Z,15.43
2023-02-08T08:10:19.526Z,5.00
2023-02-08T08:12:48.458Z,7.78
2023-02-08T08:15:17.736Z,7.50
2023-02-08T08:17:46.515Z,3.08
2023-02-08T08:20:15.387Z,7.70
2023-02-08T08:22:45.750Z,9.48
2023-02-08T08:25:15.319Z,9.10
2023-02-08T08:27:44.221Z,6.53
2023-02-08T08:30:16.244Z,13.85
2023-02-08T08:32:45.238Z,6.75
2023-02-08T08:35:14.203Z,2.95
2023-02-08T08:37:43.046Z,5.45
2023-02-08T08:40:13.919Z,9.75
2023-02-08T08:42:42.772Z,8.82
2023-02-08T08:45:12.083Z,13.48
2023-02-08T08:47:40.935Z,6.32
2023-02-08T08:50:10.161Z,5.47
2023-02-08T08:52:40.303Z,13.25
2023-02-08T08:55:09.785Z,7.35
2023-02-08T08:57:39.949Z,5.57
2023-02-08T09:00:09.961Z,5.30
2023-02-08T09:02:38.803Z,6.90
2023-02-08T09:05:08.347Z,6.28
2023-02-08T09:07:37.329Z,13.57
2023-02-08T09:10:07.063Z,5.53
2023-02-08T09:12:35.888Z,11.88
2023-02-08T09:15:06.794Z,9.70
2023-02-08T09:17:35.636Z,12.88
2023-02-08T09:20:04.978Z,8.98
2023-02-08T09:22:33.841Z,8.95
2023-02-08T09:25:03.231Z,11.10
2023-02-08T09:27:34.910Z,18.95
2023-02-08T09:30:05.461Z,9.25
2023-02-08T09:32:35.473Z,7.68
2023-02-08T09:35:04.778Z,11.27
2023-02-08T09:37:33.719Z,8.10
2023-02-08T09:40:03.322Z,11.35
2023-02-08T09:42:40.064Z,10.70
2023-02-08T09:45:47.969Z,8.88
2023-02-08T09:48:24.334Z,9.98
2023-02-08T09:50:58.091Z,10.35
2023-02-08T09:53:32.682Z,11.18
2023-02-08T09:56:06.010Z,9.93
2023-02-08T09:58:38.888Z,10.23
2023-02-08T10:01:19.340Z,10.38
2023-02-08T10:03:51.527Z,7.88
2023-02-08T10:06:22.209Z,10.98
2023-02-08T10:08:53.454Z,14.55
2023-02-08T10:11:39.977Z,9.50
2023-02-08T10:14:36.167Z,7.85
2023-02-08T10:17:21.583Z,13.13
2023-02-08T10:22:36.941Z,6.75
2023-02-08T10:25:21.397Z,8.15
2023-02-08T10:28:07.733Z,17.55
2023-02-08T10:30:43.546Z,9.68
2023-02-08T10:33:22.714Z,16.00
2023-02-08T10:35:56.797Z,14.07
2023-02-08T10:38:44.091Z,6.57
2023-02-08T10:41:19.857Z,7.35
2023-02-08T10:43:59.163Z,13.82
2023-02-08T10:46:38.478Z,15.40
2023-02-08T10:49:18.396Z,10.02
2023-02-08T10:51:50.897Z,10.48
2023-02-08T10:54:22.633Z,12.63
2023-02-08T10:56:58.974Z,7.55
2023-02-08T11:02:23.669Z,7.15
2023-02-08T11:05:03.536Z,5.22
2023-02-08T11:07:36.438Z,13.23
2023-02-08T11:10:22.399Z,6.47
2023-02-08T11:12:59.571Z,10.35
2023-02-08T11:15:37.116Z,4.90
2023-02-08T11:18:08.370Z,7.35
2023-02-08T11:20:43.216Z,10.50
2023-02-08T11:23:23.719Z,10.23
2023-02-08T11:26:00.130Z,54.00
2023-02-08T11:28:34.438Z,21.10
2023-02-08T11:31:17.142Z,9.13
2023-02-08T11:34:03.304Z,13.25
2023-02-08T11:36:46.890Z,27.77
2023-02-08T11:39:24.097Z,19.60
2023-02-08T11:42:00.499Z,13.65
2023-02-08T11:44:35.603Z,7.07
2023-02-08T11:47:07.523Z,16.30
2023-02-08T11:49:40.553Z,8.65
2023-02-08T11:52:21.886Z,6.30
2023-02-08T11:54:50.778Z,16.65
2023-02-08T11:57:21.627Z,4.40
2023-02-08T11:59:52.492Z,11.05
2023-02-08T12:02:40.107Z,14.60
2023-02-08T12:05:14.921Z,5.00
2023-02-08T12:07:58.721Z,9.82
2023-02-08T12:10:55.262Z,7.85
2023-02-08T12:13:36.414Z,9.18
2023-02-08T12:16:15.677Z,3.72
2023-02-08T12:19:03.861Z,5.90
2023-02-08T12:21:41.583Z,14.07
2023-02-08T12:24:19.960Z,5.07
2023-02-08T12:27:03.997Z,9.10
2023-02-08T12:29:47.775Z,9.30
2023-02-08T12:32:30.370Z,8.63
2023-02-08T12:35:29.516Z,15.40
2023-02-08T12:38:27.142Z,5.72
2023-02-08T12:41:08.426Z,4.30
2023-02-08T12:43:48.372Z,8.05
2023-02-08T12:46:30.014Z,5.45
2023-02-08T12:49:25.488Z,11.95
2023-02-08T12:52:07.989Z,6.10
2023-02-08T12:54:43.641Z,8.88
2023-02-08T12:57:16.522Z,6.30
2023-02-08T12:59:48.606Z,8.38
2023-02-08T13:02:22.664Z,7.93
2023-02-08T13:04:55.113Z,8.60
2023-02-08T13:07:27.746Z,4.55
2023-02-08T13:10:04.109Z,3.92
2023-02-08T13:12:37.833Z,5.22
2023-02-08T13:15:28.551Z,11.32
2023-02-08T13:18:04.156Z,7.13
2023-02-08T13:20:42.088Z,7.05
2023-02-08T13:23:18.269Z,7.82
2023-02-08T13:25:48.319Z,6.47
2023-02-08T13:28:22.040Z,8.77
2023-02-08T13:31:02.367Z,9.98
2023-02-08T13:33:37.552Z,11.07
2023-02-08T13:36:08.608Z,10.35
2023-02-08T13:38:39.174Z,9.93
2023-02-08T13:41:16.288Z,6.05
2023-02-08T13:43:51.507Z,6.72
2023-02-08T13:46:23.246Z,7.70
2023-02-08T13:48:55.132Z,9.50
2023-02-08T13:51:54.693Z,5.95
2023-02-08T13:54:23.525Z,7.82
2023-02-08T13:56:53.380Z,8.98
2023-02-08T13:59:33.877Z,6.30
2023-02-08T14:02:30.723Z,9.38
2023-02-08T14:05:38.315Z,5.32
2023-02-08T14:08:09.823Z,7.38
2023-02-08T14:10:43.410Z,6.78
2023-02-08T14:13:28.672Z,8.70
2023-02-08T14:16:28.257Z,8.98
2023-02-08T14:18:59.240Z,9.63
2023-02-08T14:21:38.172Z,10.88
2023-02-08T14:24:10.037Z,9.50
2023-02-08T14:26:39.262Z,9.93
2023-02-08T14:29:08.575Z,9.95
2023-02-08T14:31:42.367Z,15.75
2023-02-08T14:34:27.659Z,8.38
2023-02-08T14:37:02.047Z,7.20
2023-02-08T14:39:34.729Z,10.52
2023-02-08T14:42:07.267Z,9.13
2023-02-08T14:45:00.272Z,6.18
2023-02-08T14:48:02.958Z,12.13
2023-02-08T14:50:42.114Z,3.72
2023-02-08T14:53:22.205Z,3.95
2023-02-08T14:55:55.335Z,5.53
2023-02-08T14:58:29.818Z,9.90
2023-02-08T15:01:09.240Z,2.75
2023-02-08T15:03:40.956Z,3.50
2023-02-08T15:06:49.895Z,4.23
2023-02-08T15:09:22.139Z,5.35
2023-02-08T15:11:59.760Z,10.45
2023-02-08T15:14:30.147Z,3.17
2023-02-08T15:16:59.431Z,2.85
2023-02-08T15:19:31.163Z,2.67
2023-02-08T15:22:19.750Z,3.00
2023-02-08T15:24:53.593Z,2.25
2023-02-08T15:27:25.523Z,3.50
2023-02-08T15:29:54.532Z,8.93
2023-02-08T15:32:26.455Z,8.90
2023-02-08T15:34:57.495Z,6.47
2023-02-08T15:37:33.717Z,9.43
2023-02-08T15:40:04.657Z,10.43
2023-02-08T15:42:35.128Z,4.05
2023-02-08T15:45:04.619Z,6.65
2023-02-08T15:47:35.971Z,5.82
2023-02-08T15:50:07.858Z,3.47
2023-02-08T15:52:38.862Z,5.97
2023-02-08T15:55:09.024Z,6.18
2023-02-08T15:57:44.070Z,10.85
2023-02-08T16:00:18.816Z,6.20
2023-02-08T16:05:25.364Z,5.07
2023-02-08T16:07:56.410Z,2.65
2023-02-08T16:10:33.768Z,3.97
2023-02-08T16:13:08.286Z,4.95
2023-02-08T16:15:46.080Z,19.70
2023-02-08T16:18:36.303Z,8.48
2023-02-08T16:21:07.760Z,6.72
2023-02-08T16:23:40.166Z,6.07
2023-02-08T16:26:18.269Z,4.57
2023-02-08T16:28:54.325Z,9.98
2023-02-08T16:31:26.885Z,6.05
2023-02-08T16:34:01.085Z,5.05
2023-02-08T16:36:36.282Z,5.53
2023-02-08T16:39:39.296Z,8.88
2023-02-08T16:42:20.652Z,5.97
2023-02-08T16:45:02.142Z,7.65
2023-02-08T16:47:37.305Z,7.43
2023-02-08T16:50:06.910Z,5.05
2023-02-08T16:52:36.376Z,3.83
2023-02-08T16:55:07.777Z,10.52
2023-02-08T16:57:42.102Z,20.92
2023-02-08T17:00:26.912Z,7.10
2023-02-08T17:02:56.505Z,7.85
2023-02-08T17:05:27.572Z,9.23
2023-02-08T17:07:56.618Z,10.38
2023-02-08T17:10:29.342Z,8.77
2023-02-08T17:13:18.338Z,9.93
2023-02-08T17:15:48.950Z,16.10
2023-02-08T17:18:18.091Z,17.02
2023-02-08T17:20:47.337Z,7.97
2023-02-08T17:23:17.719Z,11.75
2023-02-08T17:25:48.034Z,10.05
2023-02-08T17:28:19.719Z,5.13
2023-02-08T17:30:49.956Z,13.30
2023-02-08T17:33:19.159Z,11.40
2023-02-08T17:35:49.503Z,7.22
2023-02-08T17:38:19.148Z,7.85
2023-02-08T17:40:49.819Z,11.88
2023-02-08T17:43:18.992Z,4.32
2023-02-08T17:45:48.027Z,6.93
2023-02-08T17:48:17.121Z,17.65
2023-02-08T17:50:50.934Z,10.55
2023-02-08T17:53:20.091Z,12.27
2023-02-08T17:55:50.311Z,12.65
2023-02-08T18:11:13.283Z,37.90
2023-02-08T18:13:42.236Z,16.53
2023-02-08T18:29:03.336Z,81.80
2023-02-08T18:31:33.343Z,42.63
2023-02-08T18:34:02.682Z,42.60
2023-02-08T18:36:31.818Z,47.33
2023-02-08T18:39:01.113Z,42.90
2023-02-08T18:41:31.619Z,26.60
2023-02-08T18:44:02.530Z,41.47
2023-02-08T18:46:31.461Z,38.50
2023-02-08T18:49:00.370Z,30.08
2023-02-08T18:51:31.853Z,25.40
2023-02-08T18:54:02.189Z,33.88
2023-02-08T18:56:33.154Z,35.25
2023-02-08T18:59:04.598Z,30.15
2023-02-08T19:01:34.046Z,21.98
2023-02-08T19:04:04.995Z,46.83
2023-02-08T19:06:37.125Z,51.58
2023-02-08T19:09:07.772Z,24.98
2023-02-08T19:11:38.170Z,42.47
2023-02-08T19:14:11.676Z,31.75
2023-02-08T19:16:43.040Z,50.28
2023-02-08T19:19:12.136Z,53.15
2023-02-08T19:21:41.327Z,44.95
2023-02-08T19:24:14.795Z,43.75
2023-02-08T19:26:44.108Z,77.40
2023-02-08T19:29:16.649Z,69.93
2023-02-08T19:31:50.230Z,66.25
2023-02-08T19:34:20.107Z,53.50
2023-02-08T19:36:51.838Z,45.58
2023-02-08T19:39:22.897Z,47.30
2023-02-08T19:41:52.844Z,44.25
2023-02-08T19:44:23.260Z,33.63
2023-02-08T19:46:54.893Z,40.05
2023-02-08T19:49:25.986Z,25.90
2023-02-08T19:51:55.675Z,40.30
2023-02-08T19:54:24.848Z,26.35
2023-02-08T19:56:54.805Z,29.45
2023-02-08T19:59:27.726Z,46.78
2023-02-08T20:01:56.696Z,24.73
2023-02-08T20:04:25.919Z,31.02
2023-02-08T20:06:55.626Z,41.50
2023-02-08T20:09:24.563Z,18.73
2023-02-08T20:11:57.955Z,41.13
2023-02-08T20:14:31.178Z,24.52
2023-02-08T20:17:00.531Z,21.02
2023-02-08T20:19:29.950Z,15.25
2023-02-08T20:21:58.819Z,40.35
2023-02-08T20:24:27.786Z,71.90
2023-02-08T20:26:56.825Z,36.72
2023-02-08T20:29:27.868Z,29.98
2023-02-08T20:31:58.397Z,28.05
2023-02-08T20:34:27.299Z,21.30
2023-02-08T20:37:11.381Z,21.10
2023-02-08T20:39:40.281Z,21.50
2023-02-08T20:42:09.950Z,36.88
2023-02-08T20:44:38.820Z,66.28
2023-02-08T20:47:10.781Z,47.15
2023-02-08T20:49:40.292Z,61.00
2023-02-08T20:52:09.162Z,68.60
2023-02-08T20:54:39.166Z,77.85
2023-02-08T20:57:10.953Z,94.95
2023-02-08T20:59:39.859Z,73.90
2023-02-08T21:02:16.482Z,75.45
2023-02-08T21:04:45.565Z,63.17
2023-02-08T21:07:16.155Z,60.05
2023-02-08T21:09:45.727Z,80.95
2023-02-08T21:12:14.574Z,70.93
2023-02-08T21:14:44.640Z,74.28
2023-02-08T21:17:14.811Z,24.75
2023-02-08T21:19:47.699Z,19.67
2023-02-08T21:22:20.697Z,18.38
2023-02-08T21:24:49.605Z,31.33
2023-02-08T21:27:19.150Z,28.30
2023-02-08T21:29:51.452Z,32.13
2023-02-08T21:32:21.709Z,16.77
2023-02-08T21:34:51.015Z,21.67
2023-02-08T21:37:19.916Z,39.38
2023-02-08T21:39:48.759Z,70.70
2023-02-08T21:42:17.727Z,30.75
2023-02-08T21:44:46.564Z,31.58
2023-02-08T21:47:15.358Z,63.05
2023-02-08T21:50:11.612Z,47.38
2023-02-08T21:52:57.799Z,71.78
2023-02-08T21:55:26.725Z,62.97
2023-02-08T21:57:55.622Z,79.68
2023-02-08T22:00:24.533Z,90.63
2023-02-08T22:02:53.399Z,66.15
2023-02-08T22:05:41.440Z,53.97
2023-02-08T22:08:10.369Z,43.30
2023-02-08T22:10:41.036Z,34.58
2023-02-08T22:13:11.703Z,29.05
2023-02-08T22:15:40.603Z,29.08
2023-02-08T22:18:09.539Z,45.83
2023-02-08T22:20:39.776Z,34.03
2023-02-08T22:23:08.664Z,39.10
2023-02-08T22:25:37.546Z,61.85
2023-02-08T22:28:08.349Z,63.80
2023-02-08T22:30:37.763Z,47.25
2023-02-08T22:33:06.692Z,54.22
2023-02-08T22:35:35.551Z,46.40
2023-02-08T22:38:06.048Z,58.13
2023-02-08T22:40:34.866Z,47.13
2023-02-08T22:43:03.970Z,42.22
2023-02-08T22:45:32.961Z,67.93
2023-02-08T22:48:01.976Z,48.17
2023-02-08T22:50:31.007Z,35.92
2023-02-08T22:52:59.913Z,41.08
2023-02-08T22:55:30.989Z,52.45
2023-02-08T22:57:59.792Z,27.05
2023-02-08T23:00:28.640Z,46.03
2023-02-08T23:02:57.485Z,47.50
2023-02-08T23:05:26.372Z,19.23
2023-02-08T23:07:55.262Z,28.17
2023-02-08T23:10:24.165Z,28.70
2023-02-08T23:12:54.311Z,25.85
2023-02-08T23:15:23.145Z,24.92
2023-02-08T23:17:52.066Z,31.35
2023-02-08T23:20:21.177Z,22.23
2023-02-08T23:22:50.044Z,15.27
2023-02-08T23:25:19.512Z,31.63
2023-02-08T23:27:48.795Z,23.77
2023-02-08T23:30:20.110Z,22.17
2023-02-08T23:32:48.957Z,24.88
2023-02-08T23:35:17.984Z,38.92
2023-02-08T23:37:46.810Z,54.83
2023-02-08T23:40:15.809Z,18.90
2023-02-08T23:42:44.666Z,18.88
2023-02-08T23:45:13.608Z,32.10
2023-02-08T23:47:43.904Z,22.38
2023-02-08T23:50:13.330Z,19.27
2023-02-08T23:52:42.182Z,19.20
2023-02-08T23:55:11.190Z,18.77
2023-02-08T23:57:40.104Z,19.75
